Time;durP1;ratioP1;P1;durP2;ratioP2;P2;SDS_P1;SDS_P2;PMS_P1;PMS_P2;Temp;Humidity;BMP_temperature;BMP_pressure;BME280_temperature;BME280_humidity;BME280_pressure;Samples;Min_cycle;Max_cycle;Signal;HPM_P1;HPM_P2
2022/10/04 00:02:00;;;;;;;1.50;1.40;;;;;;;;;;5009153;28;20117;-82
2022/10/04 00:04:41;;;;;;;1.48;1.23;;;12.10;99.90;;;;;;5009054;28;20517;-82
2022/10/04 00:07:18;;;;;;;2.60;1.58;;;12.00;99.90;;;;;;5008964;28;20100;-82
2022/10/04 00:09:46;;;;;;;1.38;1.15;;;;;;;;;;5009104;28;20076;-82
2022/10/04 00:12:24;;;;;;;1.45;1.10;;;;;;;;;;5011488;28;20392;-83
2022/10/04 00:14:51;;;;;;;1.60;1.50;;;;;;;;;;5012352;28;20053;-82
2022/10/04 00:17:23;;;;;;;0.90;0.90;;;;;;;;;;5012547;28;20026;-82
2022/10/04 00:19:50;;;;;;;1.50;1.20;;;11.60;99.90;;;;;;5011483;28;20042;-82
2022/10/04 00:22:19;;;;;;;4.22;1.15;;;;;;;;;;5012601;28;20080;-81
2022/10/04 00:25:08;;;;;;;0.90;0.90;;;11.60;99.90;;;;;;5011032;28;20037;-82
2022/10/04 00:27:36;;;;;;;0.98;0.98;;;;;;;;;;5002579;28;20056;-82
2022/10/04 00:30:02;;;;;;;1.38;1.13;;;;;;;;;;5012091;28;20033;-83
2022/10/04 00:32:37;;;;;;;1.83;1.17;;;11.60;99.90;;;;;;5012768;28;20029;-82
2022/10/04 00:35:23;;;;;;;2.83;1.05;;;11.50;99.90;;;;;;5012199;28;20112;-82
2022/10/04 00:38:00;;;;;;;2.58;1.27;;;;;;;;;;5011982;28;20100;-82
2022/10/04 00:40:31;;;;;;;0.85;0.85;;;11.40;99.90;;;;;;5009700;28;20033;-82
2022/10/04 00:43:16;;;;;;;1.40;0.77;;;;;;;;;;5012482;28;20407;-82
2022/10/04 00:45:55;;;;;;;1.10;0.90;;;;;;;;;;5011689;28;20030;-82
2022/10/04 00:48:39;;;;;;;1.13;1.02;;;11.30;99.90;;;;;;4999237;28;20038;-83
2022/10/04 00:51:18;;;;;;;0.82;0.82;;;;;;;;;;5012077;28;20033;-83
2022/10/04 00:53:50;;;;;;;1.30;1.20;;;;;;;;;;5011970;28;20030;-82
2022/10/04 00:56:20;;;;;;;2.05;1.10;;;;;;;;;;5009083;28;20101;-82
2022/10/04 00:59:07;;;;;;;1.10;1.00;;;11.00;99.90;;;;;;5011692;28;20038;-82
2022/10/04 01:01:34;;;;;;;;;;;11.10;99.90;;;;;;5002495;28;20530;-82
2022/10/04 01:04:03;;;;;;;1.38;1.10;;;;;;;;;;5011878;28;19947;-82
2022/10/04 01:06:29;;;;;;;1.08;1.00;;;;;;;;;;5011388;28;20030;-83
2022/10/04 01:09:00;;;;;;;1.58;1.35;;;;;;;;;;5011338;28;20507;-82
2022/10/04 01:11:28;;;;;;;3.38;1.00;;;;;;;;;;5010368;28;20084;-82
2022/10/04 01:14:19;;;;;;;1.38;1.00;;;10.90;99.90;;;;;;5011500;28;20038;-83
2022/10/04 01:16:45;;;;;;;1.23;1.17;;;;;;;;;;5011466;28;20041;-82
2022/10/04 01:19:23;;;;;;;1.38;1.00;;;;;;;;;;5011603;28;20026;-82
2022/10/04 01:21:58;;;;;;;1.65;1.13;;;;;;;;;;5010915;28;20030;-82
2022/10/04 01:24:24;;;;;;;3.00;1.45;;;;;;;;;;5011658;28;20029;-83
2022/10/04 01:26:50;;;;;;;0.90;0.90;;;;;;;;;;5009715;28;20104;-82
2022/10/04 01:29:18;;;;;;;1.60;0.85;;;;;;;;;;5011141;28;20061;-82
2022/10/04 01:31:50;;;;;;;1.83;1.00;;;10.90;99.90;;;;;;5011763;28;20109;-82
2022/10/04 01:34:17;;;;;;;0.95;0.95;;;;;;;;;;5010534;28;20026;-83
2022/10/04 01:36:46;;;;;;;1.27;1.17;;;;;;;;;;5010761;28;20162;-82
2022/10/04 01:39:13;;;;;;;1.20;1.10;;;10.90;99.90;;;;;;5011334;28;20081;-83
2022/10/04 01:41:48;;;;;;;2.15;1.33;;;;;;;;;;5011045;28;20018;-83
2022/10/04 01:44:24;;;;;;;1.05;1.00;;;;;;;;;;5009400;28;20040;-82
2022/10/04 01:46:52;;;;;;;2.05;1.10;;;;;;;;;;5010975;28;20029;-82
2022/10/04 01:49:22;;;;;;;1.40;1.30;;;10.90;99.90;;;;;;5010782;28;20041;-82
2022/10/04 01:51:53;;;;;;;1.40;1.30;;;;;;;;;;5010895;28;20109;-83
2022/10/04 01:54:20;;;;;;;1.73;1.17;;;;;;;;;;5011140;28;20034;-83
2022/10/04 01:56:55;;;;;;;;;;;10.00;99.90;;;;;;5010922;28;20029;-82
2022/10/04 01:59:26;;;;;;;1.23;0.93;;;;;;;;;;5010838;28;20445;-83
2022/10/04 02:01:55;;;;;;;1.17;1.00;;;;;;;;;;5010816;28;20053;-83
2022/10/04 02:04:27;;;;;;;0.82;0.80;;;10.70;99.90;;;;;;5010337;28;20120;-83
2022/10/04 02:06:57;;;;;;;1.65;1.25;;;10.70;99.90;;;;;;5010227;28;20551;-82
2022/10/04 02:09:28;;;;;;;1.35;1.25;;;;;;;;;;5008834;28;20038;-82
2022/10/04 02:11:56;;;;;;;1.20;1.00;;;;;;;;;;5010542;28;20038;-82
2022/10/04 02:14:26;;;;;;;1.85;1.38;;;10.50;99.90;;;;;;5009941;28;20522;-82
2022/10/04 02:16:52;;;;;;;4.40;2.05;;;;;;;;;;5010641;28;20091;-83
2022/10/04 02:19:30;;;;;;;1.92;1.10;;;10.40;99.90;;;;;;5010240;28;20025;-82
2022/10/04 02:21:57;;;;;;;1.58;1.33;;;;;;;;;;5010683;28;20030;-82
2022/10/04 02:24:23;;;;;;;1.67;1.33;;;;;;;;;;5010002;28;20030;-83
2022/10/04 02:26:51;;;;;;;3.80;1.40;;;10.30;99.90;;;;;;5010608;28;20246;-82
2022/10/04 02:29:18;;;;;;;1.58;1.42;;;;;;;;;;5010417;28;20034;-82
2022/10/04 02:34:29;;;;;;;1.48;1.38;;;;;;;;;;4998322;28;20040;-83
2022/10/04 02:36:55;;;;;;;1.43;1.03;;;;;;;;;;5010459;28;20022;-82
2022/10/04 02:39:26;;;;;;;1.13;1.02;;;;;;;;;;5010091;28;20033;-83
2022/10/04 02:42:01;;;;;;;1.35;1.20;;;10.00;99.90;;;;;;5009824;28;20056;-82
2022/10/04 02:44:29;;;;;;;2.40;1.30;;;;;;;;;;5010234;28;20121;-83
2022/10/04 02:46:56;;;;;;;1.45;1.25;;;;;;;;;;5009999;28;20037;-83
2022/10/04 02:49:30;;;;;;;0.90;0.90;;;;;;;;;;5009533;28;20045;-83
2022/10/04 02:52:30;;;;;;;1.25;1.15;;;9.90;99.90;;;;;;5008577;28;20116;-83
2022/10/04 02:55:05;;;;;;;1.38;1.05;;;;;;;;;;5010015;28;20028;-82
2022/10/04 02:57:33;;;;;;;0.90;0.90;;;;;;;;;;5009962;28;20105;-83
2022/10/04 03:00:17;;;;;;;1.10;1.00;;;;;;;;;;5009503;28;20037;-83
2022/10/04 03:03:20;;;;;;;1.30;0.88;;;9.70;99.90;;;;;;5009302;28;20109;-83
2022/10/04 03:06:07;;;;;;;6.97;0.98;;;9.70;99.90;;;;;;5009615;28;20111;-83
2022/10/04 03:08:44;;;;;;;1.10;1.00;;;;;;;;;;4998376;28;20061;-83
2022/10/04 03:11:11;;;;;;;0.75;0.75;;;;;;;;;;5009754;28;20099;-83
2022/10/04 03:13:38;;;;;;;1.80;1.08;;;;;;;;;;5009961;28;20432;-83
2022/10/04 03:16:04;;;;;;;0.80;0.70;;;;;;;;;;5008672;28;20811;-83
2022/10/04 03:18:30;;;;;;;0.95;0.77;;;;;;;;;;5009395;28;20112;-83
2022/10/04 03:20:57;;;;;;;0.88;0.88;;;;;;;;;;5009359;28;20129;-83
2022/10/04 03:23:23;;;;;;;1.50;1.40;;;;;;;;;;5008338;28;20049;-83
2022/10/04 03:25:49;;;;;;;1.52;1.15;;;;;;;;;;5008122;28;20498;-84
2022/10/04 03:28:15;;;;;;;2.40;1.00;;;;;;;;;;5009489;28;20049;-83
2022/10/04 03:30:45;;;;;;;8.02;1.02;;;;;;;;;;5009192;28;20049;-82
2022/10/04 03:33:16;;;;;;;0.98;0.90;;;;;;;;;;5009488;28;20097;-82
2022/10/04 03:35:46;;;;;;;1.20;1.00;;;9.40;99.90;;;;;;5009062;28;20042;-83
2022/10/04 03:38:12;;;;;;;1.02;0.82;;;;;;;;;;5009536;28;20030;-82
2022/10/04 03:40:41;;;;;;;0.98;0.80;;;9.50;99.90;;;;;;5009018;28;20109;-83
2022/10/04 03:43:11;;;;;;;2.60;1.92;;;;;;;;;;5008380;28;20026;-82
2022/10/04 03:45:38;;;;;;;1.23;1.13;;;;;;;;;;5009671;28;20105;-83
2022/10/04 03:48:06;;;;;;;1.80;1.08;;;;;;;;;;5013157;28;20038;-83
2022/10/04 03:50:38;;;;;;;1.77;1.20;;;9.50;99.90;;;;;;5013283;28;20030;-82
2022/10/04 03:53:09;;;;;;;1.88;1.30;;;;;;;;;;5011769;28;20566;-82
2022/10/04 03:55:43;;;;;;;2.72;1.25;;;9.60;99.90;;;;;;5002242;28;20026;-82
2022/10/04 03:58:10;;;;;;;1.90;1.30;;;;;;;;;;5012895;28;20037;-83
2022/10/04 04:00:42;;;;;;;2.08;1.42;;;9.50;99.90;;;;;;5013040;28;20431;-82
2022/10/04 04:03:09;;;;;;;3.40;1.35;;;;;;;;;;5012739;28;20021;-82
2022/10/04 04:05:51;;;;;;;0.85;0.85;;;;;;;;;;5012947;28;20101;-82
2022/10/04 04:08:30;;;;;;;3.10;1.70;;;9.40;99.90;;;;;;5012588;28;20137;-82
2022/10/04 04:10:58;;;;;;;6.43;1.60;;;;;;;;;;5012614;28;20138;-82
2022/10/04 04:13:24;;;;;;;3.10;1.45;;;;;;;;;;5012895;28;20101;-82
2022/10/04 04:15:50;;;;;;;3.22;2.08;;;;;;;;;;5011989;28;20117;-83
2022/10/04 04:18:21;;;;;;;2.65;2.22;;;;;;;;;;5012855;28;20033;-82
2022/10/04 04:20:49;;;;;;;2.72;1.38;;;;;;;;;;5012290;28;20036;-83
2022/10/04 04:23:48;;;;;;;1.75;1.40;;;9.30;99.90;;;;;;5012888;28;20454;-82
2022/10/04 04:26:18;;;;;;;2.22;1.63;;;;;;;;;;5012429;28;20026;-83
2022/10/04 04:28:57;;;;;;;4.53;1.30;;;9.30;99.90;;;;;;5012276;28;20061;-82
2022/10/04 04:31:28;;;;;;;1.83;1.25;;;;;;;;;;5012391;28;20026;-82
2022/10/04 04:34:05;;;;;;;2.70;1.45;;;9.40;99.90;;;;;;5012596;28;20108;-83
2022/10/04 04:36:32;;;;;;;2.42;1.77;;;;;;;;;;5002647;28;20034;-83
2022/10/04 04:41:58;;;;;;;3.90;1.70;;;;;;;;;;5012260;28;20638;-82
2022/10/04 04:44:25;;;;;;;2.92;2.47;;;9.50;99.90;;;;;;5012006;28;20069;-82
2022/10/04 04:46:51;;;;;;;4.15;1.70;;;;;;;;;;5011818;28;20095;-82
2022/10/04 04:49:18;;;;;;;3.20;1.80;;;;;;;;;;5012170;28;20077;-82
2022/10/04 04:51:52;;;;;;;3.97;1.70;;;;;;;;;;5012005;28;21573;-83
2022/10/04 04:54:19;;;;;;;3.25;1.90;;;;;;;;;;5010602;28;20038;-82
2022/10/04 04:56:49;;;;;;;3.28;1.70;;;9.60;99.90;;;;;;5011359;28;20022;-82
2022/10/04 04:59:15;;;;;;;7.72;2.10;;;;;;;;;;5011787;28;20026;-82
2022/10/04 05:01:43;;;;;;;4.30;2.60;;;;;;;;;;5011842;28;20053;-83
2022/10/04 05:04:11;;;;;;;2.72;1.75;;;;;;;;;;5011726;28;20037;-83
2022/10/04 05:06:38;;;;;;;;;;;9.70;99.90;;;;;;5012367;28;20026;-82
2022/10/04 05:09:05;;;;;;;3.47;1.85;;;;;;;;;;5011748;28;19921;-83
2022/10/04 05:11:34;;;;;;;1.83;1.53;;;9.40;99.90;;;;;;5011577;28;20460;-83
2022/10/04 05:14:04;;;;;;;3.65;1.95;;;;;;;;;;5011230;28;20033;-83
2022/10/04 05:16:33;;;;;;;2.65;1.65;;;;;;;;;;5011496;28;20022;-83
2022/10/04 05:19:07;;;;;;;2.67;1.63;;;;;;;;;;5011318;28;20029;-83
2022/10/04 05:21:34;;;;;;;3.40;2.35;;;;;;;;;;5011675;28;20048;-83
2022/10/04 05:24:14;;;;;;;4.55;2.72;;;;;;;;;;5010244;28;20124;-82
2022/10/04 05:26:41;;;;;;;4.55;2.00;;;;;;;;;;5011508;28;20434;-82
2022/10/04 05:29:14;;;;;;;5.30;2.95;;;8.90;99.90;;;;;;5007161;28;20034;-81
2022/10/04 05:31:45;;;;;;;3.50;2.05;;;9.20;99.90;;;;;;5007646;28;20613;-81
2022/10/04 05:34:26;;;;;;;2.08;1.88;;;9.10;99.90;;;;;;5005038;28;20026;-81
2022/10/04 05:36:52;;;;;;;6.28;2.40;;;;;;;;;;5008857;28;20072;-81
2022/10/04 05:39:35;;;;;;;3.97;2.05;;;9.20;99.90;;;;;;5008611;28;20030;-81
2022/10/04 05:42:01;;;;;;;3.75;2.42;;;;;;;;;;5008014;28;20144;-81
2022/10/04 05:44:51;;;;;;;4.07;1.98;;;9.20;99.90;;;;;;5007069;28;20121;-82
2022/10/04 05:47:26;;;;;;;4.32;1.98;;;9.10;99.90;;;;;;5008502;28;20030;-81
2022/10/04 05:49:59;;;;;;;4.40;2.53;;;9.20;99.90;;;;;;5006824;28;20038;-87
2022/10/04 05:52:35;;;;;;;4.25;2.03;;;9.30;99.90;;;;;;5007341;28;20081;-82
2022/10/04 05:55:27;;;;;;;2.28;1.90;;;9.20;99.90;;;;;;5009407;28;20018;-81
2022/10/04 05:58:00;;;;;;;11.43;2.35;;;;;;;;;;5009421;28;20109;-82
2022/10/04 06:00:50;;;;;;;3.38;2.17;;;9.50;99.90;;;;;;5009134;28;20030;-82
2022/10/04 06:03:18;;;;;;;3.65;2.58;;;;;;;;;;5009532;28;20026;-82
2022/10/04 06:05:58;;;;;;;2.97;2.03;;;9.70;99.90;;;;;;5009182;28;20026;-82
2022/10/04 06:08:49;;;;;;;5.10;2.63;;;9.70;99.90;;;;;;5008553;28;20107;-82
2022/10/04 06:11:21;;;;;;;2.22;1.85;;;;;;;;;;5009401;28;20025;-82
2022/10/04 06:13:53;;;;;;;3.85;1.92;;;;;;;;;;5008172;28;20395;-81
2022/10/04 06:16:22;;;;;;;3.33;2.20;;;;;;;;;;5008698;28;20044;-81
2022/10/04 06:19:26;;;;;;;3.60;1.58;;;10.00;99.90;;;;;;5008237;28;20026;-84
2022/10/04 06:22:15;;;;;;;3.10;1.95;;;10.10;99.90;;;;;;5007183;28;20513;-82
2022/10/04 06:24:45;;;;;;;3.40;1.95;;;10.30;99.90;;;;;;4998286;28;20022;-84
2022/10/04 06:27:18;;;;;;;3.65;2.35;;;10.50;99.90;;;;;;4996913;28;20052;-85
2022/10/04 06:29:57;;;;;;;5.55;2.30;;;13.00;99.90;;;;;;5001959;28;20380;-86
2022/10/04 06:32:40;;;;;;;9.63;3.05;;;10.90;99.90;;;;;;5008558;28;20021;-84
2022/10/04 06:35:44;;;;;;;5.57;3.08;;;11.20;99.90;;;;;;5009049;28;20053;-83
2022/10/04 06:38:10;;;;;;;6.50;3.20;;;;;;;;;;4967041;28;20141;-84
2022/10/04 06:40:38;;;;;;;11.57;3.72;;;11.50;99.90;;;;;;4986586;28;20113;-86
2022/10/04 06:43:21;;;;;;;8.00;3.45;;;11.60;99.90;;;;;;4986916;28;20038;-83
2022/10/04 06:46:06;;;;;;;11.68;3.50;;;11.70;99.90;;;;;;4977276;28;20033;-89
2022/10/04 06:48:32;;;;;;;6.28;4.15;;;;;;;;;;4984786;28;20111;-82
2022/10/04 06:51:34;;;;;;;7.70;4.07;;;11.60;99.90;;;;;;4986410;28;20786;-84
2022/10/04 06:54:21;;;;;;;11.90;3.67;;;11.70;99.90;;;;;;4985705;28;20423;-84
2022/10/04 06:57:25;;;;;;;10.48;4.78;;;11.60;99.90;;;;;;4986421;28;20069;-84
2022/10/04 07:00:08;;;;;;;11.00;4.25;;;12.00;99.90;;;;;;4985820;28;20076;-85
2022/10/04 07:02:57;;;;;;;15.85;4.38;;;12.00;99.90;;;;;;4986694;28;20034;-82
2022/10/04 07:05:31;;;;;;;10.48;4.60;;;12.00;99.90;;;;;;4986483;28;20018;-83
2022/10/04 07:08:10;;;;;;;9.50;4.72;;;12.10;99.90;;;;;;4986082;28;20042;-83
2022/10/04 07:10:54;;;;;;;8.10;5.82;;;12.20;99.90;;;;;;4986343;28;20088;-84
2022/10/04 07:13:20;;;;;;;19.65;5.22;;;;;;;;;;5002438;28;20022;-83
2022/10/04 07:16:26;;;;;;;9.18;3.75;;;12.50;99.90;;;;;;5003050;28;20068;-83
2022/10/04 07:18:54;;;;;;;10.80;4.40;;;12.60;99.90;;;;;;5008842;28;20068;-82
2022/10/04 07:21:25;;;;;;;8.70;5.68;;;12.80;99.90;;;;;;4995190;28;20065;-83
2022/10/04 07:24:00;;;;;;;11.48;5.38;;;12.90;99.90;;;;;;5008659;28;20018;-83
2022/10/04 07:26:43;;;;;;;14.07;4.75;;;13.00;99.90;;;;;;5009013;28;20502;-84
2022/10/04 07:29:21;;;;;;;7.65;4.05;;;13.10;99.90;;;;;;5007922;28;20034;-84
2022/10/04 07:32:04;;;;;;;12.80;4.82;;;13.20;99.90;;;;;;5008594;28;20022;-84
2022/10/04 07:34:36;;;;;;;9.02;5.32;;;13.30;99.90;;;;;;4997301;28;20029;-80
2022/10/04 07:37:13;;;;;;;9.20;5.25;;;13.40;99.90;;;;;;5008370;28;20414;-80
2022/10/04 07:39:49;;;;;;;10.60;4.47;;;13.60;99.90;;;;;;5008410;28;20030;-86
2022/10/04 07:42:23;;;;;;;10.65;4.70;;;13.50;99.90;;;;;;5007523;28;20022;-87
2022/10/04 07:45:07;;;;;;;8.88;4.47;;;14.00;99.90;;;;;;5008461;28;20364;-85
2022/10/04 07:47:33;;;;;;;9.35;4.30;;;;;;;;;;5013958;28;20026;-84
2022/10/04 07:50:00;;;;;;;7.90;4.55;;;;;;;;;;5007960;28;20502;-86
2022/10/04 07:52:49;;;;;;;12.68;5.72;;;14.30;99.90;;;;;;5009083;28;20039;-86
2022/10/04 07:55:27;;;;;;;14.18;5.53;;;14.50;99.90;;;;;;5010668;28;20025;-89
2022/10/04 07:57:53;;;;;;;13.15;4.57;;;;;;;;;;5010637;28;20065;-89
2022/10/04 08:00:31;;;;;;;11.15;4.63;;;14.40;99.90;;;;;;5007370;28;20529;-82
2022/10/04 08:03:24;;;;;;;13.57;5.95;;;14.40;99.90;;;;;;5007771;28;20057;-82
2022/10/04 08:06:15;;;;;;;11.68;5.25;;;14.60;99.90;;;;;;5007348;28;20069;-82
2022/10/04 08:09:02;;;;;;;15.15;6.25;;;14.70;99.90;;;;;;4998086;28;20052;-80
2022/10/04 08:11:49;;;;;;;11.98;4.75;;;14.70;99.90;;;;;;5006671;28;20037;-84
2022/10/04 08:14:27;;;;;;;10.30;4.40;;;14.80;99.90;;;;;;5002624;28;20637;-84
2022/10/04 08:17:10;;;;;;;10.82;5.15;;;15.10;99.90;;;;;;5006774;28;20022;-86
2022/10/04 08:19:57;;;;;;;16.75;6.93;;;;;;;;;;5006749;28;20415;-85
2022/10/04 08:22:37;;;;;;;11.68;5.63;;;14.90;99.90;;;;;;5003435;28;20026;-86
2022/10/04 08:25:03;;;;;;;16.23;5.55;;;;;;;;;;5008410;28;20048;-87
2022/10/04 08:27:36;;;;;;;13.63;6.65;;;15.40;99.90;;;;;;5008451;28;20465;-86
2022/10/04 08:30:03;;;;;;;9.30;4.65;;;;;;;;;;5005901;28;20400;-86
2022/10/04 08:32:49;;;;;;;9.35;4.80;;;16.00;99.90;;;;;;5009865;28;20022;-88
2022/10/04 08:35:18;;;;;;;8.90;4.80;;;;;;;;;;5005201;28;20050;-84
2022/10/04 08:38:03;;;;;;;7.38;4.25;;;16.00;99.90;;;;;;5011210;28;20261;-85
2022/10/04 08:40:50;;;;;;;10.43;6.05;;;16.20;99.90;;;;;;5009913;28;20398;-84
2022/10/04 08:43:18;;;;;;;6.90;4.25;;;;;;;;;;5011209;28;20026;-83
2022/10/04 08:46:08;;;;;;;11.43;3.67;;;16.60;99.90;;;;;;5007633;28;20037;-85
2022/10/04 08:49:15;;;;;;;8.05;3.97;;;16.80;99.90;;;;;;5011194;28;20072;-85
2022/10/04 08:51:53;;;;;;;6.20;4.82;;;;;;;;;;5010850;28;20041;-87
2022/10/04 08:54:26;;;;;;;19.17;5.90;;;;;;;;;;5011364;28;20734;-87
2022/10/04 08:57:25;;;;;;;11.73;5.15;;;18.00;99.60;;;;;;5010558;28;20046;-87
2022/10/04 09:00:12;;;;;;;7.53;4.25;;;18.70;98.30;;;;;;5008229;28;20030;-85
2022/10/04 09:03:15;;;;;;;8.43;4.28;;;19.50;96.90;;;;;;5010952;28;20036;-84
2022/10/04 09:05:46;;;;;;;7.30;3.67;;;20.20;95.50;;;;;;5010214;28;20034;-84
2022/10/04 09:08:24;;;;;;;10.75;5.60;;;20.40;94.90;;;;;;5010156;28;20573;-89
2022/10/04 09:11:16;;;;;;;9.18;4.25;;;22.30;93.50;;;;;;5011642;28;20034;-80
2022/10/04 09:14:03;;;;;;;8.85;4.10;;;23.10;88.40;;;;;;4949805;28;20040;-84
2022/10/04 09:16:43;;;;;;;4.70;3.22;;;25.20;80.40;;;;;;4969152;28;20432;-85
2022/10/04 09:19:20;;;;;;;6.35;3.58;;;;;;;;;;4968388;28;20077;-84
2022/10/04 09:21:46;;;;;;;6.05;3.47;;;;;;;;;;4968865;28;20782;-84
2022/10/04 09:24:46;;;;;;;7.00;2.72;;;25.40;82.90;;;;;;4971023;28;20101;-90
2022/10/04 09:27:18;;;;;;;7.57;4.10;;;25.30;72.40;;;;;;4954627;28;20023;-90
2022/10/04 09:30:21;;;;;;;5.95;3.10;;;25.10;71.10;;;;;;4971087;28;20174;-89
2022/10/04 09:32:58;;;;;;;4.15;2.92;;;29.20;73.30;;;;;;4954261;28;20122;-89
2022/10/04 09:35:24;;;;;;;4.25;2.78;;;;;;;;;;4984102;28;20037;-82
2022/10/04 09:38:17;;;;;;;4.65;3.03;;;37.30;48.90;;;;;;4968975;28;20038;-83
2022/10/04 09:41:02;;;;;;;3.83;2.38;;;37.50;48.60;;;;;;4968452;28;20454;-82
2022/10/04 09:43:30;;;;;;;3.55;2.20;;;35.80;44.90;;;;;;4967829;28;20066;-82
2022/10/04 09:46:37;;;;;;;3.85;2.22;;;34.20;54.20;;;;;;4968252;28;20030;-82
2022/10/04 09:49:06;;;;;;;4.25;2.20;;;32.80;56.00;;;;;;4967629;28;20038;-81
2022/10/04 09:52:07;;;;;;;2.92;2.08;;;31.50;55.70;;;;;;5002978;28;20511;-82
2022/10/04 09:55:04;;;;;;;4.28;2.40;;;32.50;55.90;;;;;;5009636;28;20049;-82
2022/10/04 09:58:10;;;;;;;3.10;2.20;;;36.60;50.10;;;;;;5009607;28;20026;-84
2022/10/04 10:00:54;;;;;;;6.97;2.30;;;36.90;48.90;;;;;;4999764;28;20033;-83
2022/10/04 10:03:51;;;;;;;5.47;1.90;;;35.40;41.20;;;;;;5009064;28;20022;-84
2022/10/04 10:06:31;;;;;;;3.78;1.70;;;36.80;47.30;;;;;;5009576;28;20034;-85
2022/10/04 10:16:00;;;;;;;3.05;1.67;;;41.00;41.90;;;;;;5001933;28;20048;-87
2022/10/04 10:19:04;;;;;;;2.63;1.50;;;42.60;39.80;;;;;;4998803;28;20535;-88
2022/10/04 10:22:15;;;;;;;3.40;1.23;;;43.50;39.00;;;;;;5012701;28;20022;-88
2022/10/04 10:25:17;;;;;;;2.05;1.63;;;44.00;37.90;;;;;;5006723;28;20284;-87
2022/10/04 10:28:09;;;;;;;1.98;1.35;;;43.90;37.30;;;;;;5006321;28;20041;-88
2022/10/04 10:31:19;;;;;;;1.92;0.98;;;44.60;36.40;;;;;;5002176;28;20189;-88
2022/10/04 10:34:03;;;;;;;1.88;1.33;;;45.00;35.60;;;;;;5006146;28;20022;-89
2022/10/04 10:36:43;;;;;;;2.35;1.20;;;44.90;34.40;;;;;;5006752;28;20061;-89
2022/10/04 10:39:32;;;;;;;4.80;1.23;;;44.90;34.00;;;;;;5006285;28;20037;-89
2022/10/04 10:42:18;;;;;;;2.22;1.17;;;44.60;34.00;;;;;;5002654;28;20046;-89
2022/10/04 10:45:04;;;;;;;1.45;0.80;;;45.00;34.30;;;;;;5002785;28;20650;-89
2022/10/04 10:47:44;;;;;;;1.90;1.23;;;45.30;32.00;;;;;;5005604;28;20034;-86
2022/10/04 10:50:31;;;;;;;2.28;1.30;;;45.10;34.20;;;;;;5006032;28;20030;-87
2022/10/04 10:53:15;;;;;;;1.55;0.80;;;45.10;33.20;;;;;;5006400;28;20038;-86
2022/10/04 10:56:28;;;;;;;3.38;1.20;;;45.40;33.60;;;;;;5005250;28;20026;-87
2022/10/04 10:59:05;;;;;;;1.80;1.33;;;45.80;29.20;;;;;;4922950;29;20044;-87
2022/10/04 11:01:46;;;;;;;3.83;1.00;;;;;;;;;;4937345;29;20058;-83
2022/10/04 11:04:39;;;;;;;1.60;0.90;;;45.10;27.70;;;;;;4947353;29;20104;-83
2022/10/04 11:07:17;;;;;;;1.95;0.90;;;;;;;;;;4946837;29;20146;-82
2022/10/04 11:10:28;;;;;;;2.08;1.13;;;43.80;27.60;;;;;;4946832;29;20063;-83
2022/10/04 11:13:25;;;;;;;2.78;1.42;;;43.20;28.10;;;;;;4918193;29;20047;-82
2022/10/04 11:16:08;;;;;;;3.95;1.52;;;42.70;34.10;;;;;;4908872;29;20031;-87
2022/10/04 11:18:34;;;;;;;1.80;1.23;;;;;;;;;;4908647;29;20115;-83
2022/10/04 11:21:15;;;;;;;2.08;1.02;;;41.30;36.80;;;;;;4909738;29;20127;-83
2022/10/04 11:24:04;;;;;;;2.70;1.55;;;39.60;31.70;;;;;;4909609;29;20458;-84
2022/10/04 11:26:57;;;;;;;2.70;1.75;;;37.80;31.50;;;;;;4909357;29;20147;-83
2022/10/04 11:29:54;;;;;;;3.15;1.23;;;35.90;32.00;;;;;;4908348;29;20044;-81
2022/10/04 11:32:58;;;;;;;2.15;1.63;;;34.30;33.40;;;;;;4908998;29;20028;-84
2022/10/04 11:35:37;;;;;;;3.20;1.77;;;33.20;35.00;;;;;;4928437;29;20487;-81
2022/10/04 11:38:03;;;;;;;2.53;1.65;;;;;;;;;;4947392;29;20118;-80
2022/10/04 11:40:57;;;;;;;2.95;1.50;;;32.10;36.70;;;;;;4947439;28;20043;-82
2022/10/04 11:43:23;;;;;;;5.90;2.53;;;;;;;;;;4948008;29;20662;-82
2022/10/04 11:46:12;;;;;;;2.03;1.55;;;31.60;37.40;;;;;;4946864;29;20198;-83
2022/10/04 11:48:47;;;;;;;3.10;1.45;;;31.00;48.70;;;;;;4947237;29;20055;-82
2022/10/04 11:51:34;;;;;;;2.20;1.45;;;30.50;39.20;;;;;;4947379;29;20085;-83
2022/10/04 11:54:27;;;;;;;4.50;2.28;;;29.90;39.90;;;;;;5001199;28;20041;-80
2022/10/04 11:57:14;;;;;;;1.75;1.35;;;29.20;41.10;;;;;;5022995;28;20022;-80
2022/10/04 11:59:40;;;;;;;2.75;1.70;;;;;;;;;;5007606;28;20499;-80
2022/10/04 12:02:33;;;;;;;2.35;1.58;;;28.40;42.80;;;;;;5007733;28;20037;-80
2022/10/04 12:05:28;;;;;;;4.82;1.80;;;28.00;54.50;;;;;;5006959;28;20113;-79
2022/10/04 12:08:21;;;;;;;2.50;1.77;;;27.60;44.00;;;;;;5010154;28;20084;-82
2022/10/04 12:14:42;;;;;;;5.05;1.65;;;26.70;45.90;;;;;;5009204;28;20044;-84
2022/10/04 12:17:13;;;;;;;3.50;1.70;;;26.10;46.80;;;;;;5009319;28;20026;-84
2022/10/04 12:20:13;;;;;;;2.72;1.83;;;25.60;51.80;;;;;;5009325;28;20056;-85
2022/10/04 12:23:16;;;;;;;3.80;2.20;;;24.80;49.00;;;;;;5009018;28;20076;-84
2022/10/04 12:26:13;;;;;;;2.35;1.75;;;24.40;51.10;;;;;;5008591;28;20030;-84
2022/10/04 12:28:50;;;;;;;3.70;2.08;;;24.20;51.30;;;;;;5008621;28;20880;-85
2022/10/04 12:31:23;;;;;;;1.67;1.55;;;24.20;64.10;;;;;;5008288;28;20038;-85
2022/10/04 12:34:04;;;;;;;2.85;1.77;;;24.00;54.00;;;;;;5008845;28;20022;-85
2022/10/04 12:36:48;;;;;;;4.07;1.58;;;23.90;53.10;;;;;;5004668;28;20037;-84
2022/10/04 12:39:33;;;;;;;3.20;1.85;;;23.80;53.60;;;;;;5008327;28;20491;-83
2022/10/04 12:42:09;;;;;;;2.58;2.33;;;23.70;54.60;;;;;;5008249;28;20224;-82
2022/10/04 12:45:01;;;;;;;2.42;2.05;;;23.50;54.60;;;;;;5007193;28;20653;-82
2022/10/04 12:47:43;;;;;;;2.08;1.52;;;23.50;67.20;;;;;;5008278;28;20042;-84
2022/10/04 12:50:27;;;;;;;2.88;1.73;;;23.50;55.60;;;;;;5008738;28;20182;-83
2022/10/04 12:53:10;;;;;;;1.50;1.38;;;23.50;56.60;;;;;;5009653;28;20041;-83
2022/10/04 12:55:45;;;;;;;2.10;1.70;;;23.40;57.20;;;;;;4998880;28;20030;-86
2022/10/04 12:58:49;;;;;;;1.73;1.60;;;23.30;57.40;;;;;;5005102;28;20029;-86
2022/10/04 13:01:30;;;;;;;1.95;1.50;;;23.20;63.60;;;;;;5006979;28;20088;-85
2022/10/04 13:04:06;;;;;;;2.83;1.70;;;23.30;58.20;;;;;;5008370;28;20108;-81
2022/10/04 13:07:00;;;;;;;3.05;1.67;;;23.30;58.40;;;;;;5010597;28;20124;-80
2022/10/04 13:09:56;;;;;;;5.40;1.85;;;23.20;59.00;;;;;;5010608;28;20130;-80
2022/10/04 13:12:55;;;;;;;2.60;1.90;;;23.30;59.90;;;;;;5010457;28;20025;-79
2022/10/04 13:15:57;;;;;;;3.88;2.20;;;23.20;60.40;;;;;;5004990;28;20033;-80
2022/10/04 13:18:31;;;;;;;2.22;1.63;;;23.20;74.30;;;;;;5010415;28;20057;-81
2022/10/04 13:20:57;;;;;;;3.60;2.47;;;;;;;;;;5010739;28;20057;-81
2022/10/04 13:23:47;;;;;;;3.78;2.10;;;22.80;67.00;;;;;;5010363;28;20467;-79
2022/10/04 13:26:37;;;;;;;6.63;2.08;;;22.80;62.60;;;;;;5010349;28;20518;-80
2022/10/04 13:29:22;;;;;;;3.65;2.08;;;22.70;63.20;;;;;;5007100;28;20407;-79
2022/10/04 13:32:04;;;;;;;3.15;2.17;;;22.70;63.40;;;;;;5009945;28;20053;-80
2022/10/04 13:34:43;;;;;;;2.53;1.90;;;22.50;66.60;;;;;;5010451;28;20028;-80
2022/10/04 13:37:40;;;;;;;3.00;2.22;;;22.50;65.00;;;;;;5010181;28;20021;-84
2022/10/04 13:40:37;;;;;;;1.75;1.65;;;22.40;78.10;;;;;;5009931;28;20032;-82
2022/10/04 13:43:32;;;;;;;2.95;2.08;;;22.20;66.50;;;;;;5009847;28;20542;-83
2022/10/04 13:46:06;;;;;;;2.40;1.95;;;22.20;79.80;;;;;;5009940;28;20030;-82
2022/10/04 13:48:42;;;;;;;5.30;2.60;;;22.10;73.00;;;;;;5010192;28;20030;-82
2022/10/04 13:51:08;;;;;;;2.87;2.10;;;;;;;;;;5008678;28;20029;-83
2022/10/04 13:57:03;;;;;;;3.97;2.55;;;22.10;68.00;;;;;;4986509;28;20479;-81
2022/10/04 14:00:05;;;;;;;6.05;2.08;;;22.10;77.60;;;;;;4987489;28;20019;-79
2022/10/04 14:02:54;;;;;;;4.18;2.10;;;22.20;72.10;;;;;;4987103;28;20101;-82
2022/10/04 14:05:41;;;;;;;4.25;2.28;;;22.10;69.20;;;;;;4975995;28;20076;-80
2022/10/04 14:08:20;;;;;;;4.05;2.45;;;22.40;77.80;;;;;;4985372;28;20576;-82
2022/10/04 14:11:07;;;;;;;2.72;2.10;;;22.20;82.60;;;;;;4970716;28;20038;-82
2022/10/04 14:14:09;;;;;;;4.05;2.30;;;22.00;69.90;;;;;;4976893;28;20035;-83
2022/10/04 14:16:56;;;;;;;2.63;2.13;;;22.00;70.80;;;;;;4987141;28;20054;-80
2022/10/04 14:19:21;;;;;;;;;;;22.10;71.50;;;;;;4983786;28;20535;-83
2022/10/04 14:21:56;;;;;;;5.47;2.40;;;22.40;78.70;;;;;;4984128;28;19952;-82
2022/10/04 14:24:39;;;;;;;4.18;2.47;;;21.70;84.50;;;;;;4986645;28;20022;-81
2022/10/04 14:27:30;;;;;;;2.65;2.45;;;22.00;85.10;;;;;;4986450;28;20042;-82
2022/10/04 14:30:06;;;;;;;8.40;2.28;;;21.90;72.60;;;;;;4985123;28;20136;-80
2022/10/04 14:33:02;;;;;;;12.63;3.13;;;21.90;72.70;;;;;;4991459;28;20037;-79
2022/10/04 14:35:52;;;;;;;5.67;2.50;;;21.80;73.10;;;;;;5008980;28;20275;-81
2022/10/04 14:38:46;;;;;;;5.40;2.83;;;21.80;75.00;;;;;;5005335;28;20401;-80
2022/10/04 14:41:40;;;;;;;6.00;2.70;;;21.60;74.50;;;;;;4999893;28;20064;-80
2022/10/04 14:44:38;;;;;;;5.15;3.33;;;21.90;87.70;;;;;;5008625;28;20071;-79
2022/10/04 14:47:35;;;;;;;9.50;3.03;;;21.50;75.40;;;;;;5008467;28;20141;-81
2022/10/04 14:50:45;;;;;;;4.43;2.88;;;21.50;86.10;;;;;;5008243;28;20046;-82
2022/10/04 14:53:39;;;;;;;8.10;2.58;;;21.70;89.70;;;;;;5007937;28;20572;-85